sensor_id;sensor_type;location;lat;lon;timestamp;temperature;humidity
25877;DHT22;13692;47.480;19.216;2023-02-15T00:02:00;0.20;99.90
25877;DHT22;13692;47.480;19.216;2023-02-15T00:04:28;0.10;99.90
25877;DHT22;13692;47.480;19.216;2023-02-15T00:07:18;0.10;99.90
25877;DHT22;13692;47.480;19.216;2023-02-15T00:09:46;0.10;99.90
25877;DHT22;13692;47.480;19.216;2023-02-15T00:12:13;0.10;99.90
25877;DHT22;13692;47.480;19.216;2023-02-15T00:14:41;0.00;99.90
25877;DHT22;13692;47.480;19.216;2023-02-15T00:17:09;0.00;99.90
25877;DHT22;13692;47.480;19.216;2023-02-15T00:19:36;0.00;99.90
25877;DHT22;13692;47.480;19.216;2023-02-15T00:22:03;0.00;99.90
25877;DHT22;13692;47.480;19.216;2023-02-15T00:24:30;0.00;99.90
25877;DHT22;13692;47.480;19.216;2023-02-15T00:26:57;0.00;99.90
25877;DHT22;13692;47.480;19.216;2023-02-15T00:29:24;-0.10;99.90
25877;DHT22;13692;47.480;19.216;2023-02-15T00:31:51;0.00;99.90
25877;DHT22;13692;47.480;19.216;2023-02-15T00:34:23;0.00;99.90
25877;DHT22;13692;47.480;19.216;2023-02-15T00:36:51;0.00;99.90
25877;DHT22;13692;47.480;19.216;2023-02-15T00:39:19;0.00;99.90
25877;DHT22;13692;47.480;19.216;2023-02-15T00:41:46;-0.10;99.90
25877;DHT22;13692;47.480;19.216;2023-02-15T00:44:14;-0.10;99.90
25877;DHT22;13692;47.480;19.216;2023-02-15T00:46:41;-0.10;99.90
25877;DHT22;13692;47.480;19.216;2023-02-15T00:49:09;-0.30;99.90
25877;DHT22;13692;47.480;19.216;2023-02-15T00:51:36;-0.30;99.90
25877;DHT22;13692;47.480;19.216;2023-02-15T00:54:03;-0.20;99.90
25877;DHT22;13692;47.480;19.216;2023-02-15T00:56:30;-0.20;99.90
25877;DHT22;13692;47.480;19.216;2023-02-15T00:58:56;-0.10;99.90
25877;DHT22;13692;47.480;19.216;2023-02-15T01:01:24;-0.20;99.90
25877;DHT22;13692;47.480;19.216;2023-02-15T01:03:52;-0.20;99.90
25877;DHT22;13692;47.480;19.216;2023-02-15T01:06:19;-0.30;99.90
25877;DHT22;13692;47.480;19.216;2023-02-15T01:08:47;-0.30;99.90
25877;DHT22;13692;47.480;19.216;2023-02-15T01:11:18;-0.40;99.90
25877;DHT22;13692;47.480;19.216;2023-02-15T01:13:55;-0.50;99.90
25877;DHT22;13692;47.480;19.216;2023-02-15T01:16:24;-0.50;99.90
25877;DHT22;13692;47.480;19.216;2023-02-15T01:18:51;-0.70;99.90
25877;DHT22;13692;47.480;19.216;2023-02-15T01:21:21;-0.60;99.90
25877;DHT22;13692;47.480;19.216;2023-02-15T01:23:49;-0.50;99.90
25877;DHT22;13692;47.480;19.216;2023-02-15T01:26:16;-0.60;99.90
25877;DHT22;13692;47.480;19.216;2023-02-15T01:28:44;-0.70;99.90
25877;DHT22;13692;47.480;19.216;2023-02-15T01:31:16;-0.60;99.90
25877;DHT22;13692;47.480;19.216;2023-02-15T01:33:44;-0.50;99.90
25877;DHT22;13692;47.480;19.216;2023-02-15T01:36:11;-0.60;99.90
25877;DHT22;13692;47.480;19.216;2023-02-15T01:38:38;-0.60;99.90
25877;DHT22;13692;47.480;19.216;2023-02-15T01:41:06;-0.70;99.90
25877;DHT22;13692;47.480;19.216;2023-02-15T01:43:58;-0.60;99.90
25877;DHT22;13692;47.480;19.216;2023-02-15T01:51:38;-0.30;99.90
25877;DHT22;13692;47.480;19.216;2023-02-15T01:54:32;-0.30;99.90
25877;DHT22;13692;47.480;19.216;2023-02-15T01:57:03;-0.30;99.90
25877;DHT22;13692;47.480;19.216;2023-02-15T01:59:32;-0.30;99.90
25877;DHT22;13692;47.480;19.216;2023-02-15T02:02:00;-0.40;99.90
25877;DHT22;13692;47.480;19.216;2023-02-15T02:04:48;-0.50;99.90
25877;DHT22;13692;47.480;19.216;2023-02-15T02:07:19;-0.50;99.90
25877;DHT22;13692;47.480;19.216;2023-02-15T02:09:47;-0.60;99.90
25877;DHT22;13692;47.480;19.216;2023-02-15T02:12:16;-0.60;99.90
25877;DHT22;13692;47.480;19.216;2023-02-15T02:14:45;-0.50;99.90
25877;DHT22;13692;47.480;19.216;2023-02-15T02:36:31;-0.70;99.90
25877;DHT22;13692;47.480;19.216;2023-02-15T02:42:09;-0.80;99.90
25877;DHT22;13692;47.480;19.216;2023-02-15T02:44:44;-0.80;99.90
25877;DHT22;13692;47.480;19.216;2023-02-15T02:50:04;-0.90;99.90
25877;DHT22;13692;47.480;19.216;2023-02-15T02:52:44;-0.90;99.90
25877;DHT22;13692;47.480;19.216;2023-02-15T02:58:14;-0.90;99.90
25877;DHT22;13692;47.480;19.216;2023-02-15T03:01:24;-0.80;99.90
25877;DHT22;13692;47.480;19.216;2023-02-15T03:03:54;-0.80;99.90
25877;DHT22;13692;47.480;19.216;2023-02-15T03:06:27;-0.70;99.90
25877;DHT22;13692;47.480;19.216;2023-02-15T03:09:01;-0.80;99.90
25877;DHT22;13692;47.480;19.216;2023-02-15T03:11:30;-0.80;99.90
25877;DHT22;13692;47.480;19.216;2023-02-15T03:13:58;-0.90;99.90
25877;DHT22;13692;47.480;19.216;2023-02-15T03:16:26;-0.90;99.90
25877;DHT22;13692;47.480;19.216;2023-02-15T03:18:59;-1.00;99.90
25877;DHT22;13692;47.480;19.216;2023-02-15T03:21:45;-0.90;99.90
25877;DHT22;13692;47.480;19.216;2023-02-15T03:27:31;-1.00;99.90
25877;DHT22;13692;47.480;19.216;2023-02-15T03:30:00;-0.90;99.90
25877;DHT22;13692;47.480;19.216;2023-02-15T03:32:30;-1.00;99.90
25877;DHT22;13692;47.480;19.216;2023-02-15T03:34:58;-1.10;99.90
25877;DHT22;13692;47.480;19.216;2023-02-15T03:37:48;-1.00;99.90
25877;DHT22;13692;47.480;19.216;2023-02-15T03:40:26;-1.00;99.90
25877;DHT22;13692;47.480;19.216;2023-02-15T03:46:11;-1.00;99.90
25877;DHT22;13692;47.480;19.216;2023-02-15T03:48:46;-0.90;99.90
25877;DHT22;13692;47.480;19.216;2023-02-15T03:51:17;-1.00;99.90
25877;DHT22;13692;47.480;19.216;2023-02-15T03:54:14;-1.00;99.90
25877;DHT22;13692;47.480;19.216;2023-02-15T03:57:02;-1.10;99.90
25877;DHT22;13692;47.480;19.216;2023-02-15T03:59:47;-1.10;99.90
25877;DHT22;13692;47.480;19.216;2023-02-15T04:05:37;-1.20;99.90
25877;DHT22;13692;47.480;19.216;2023-02-15T04:08:05;-1.20;99.90
25877;DHT22;13692;47.480;19.216;2023-02-15T04:10:32;-1.30;99.90
25877;DHT22;13692;47.480;19.216;2023-02-15T04:13:22;-1.20;99.90
25877;DHT22;13692;47.480;19.216;2023-02-15T04:15:50;-1.20;99.90
25877;DHT22;13692;47.480;19.216;2023-02-15T04:18:35;-1.10;99.90
25877;DHT22;13692;47.480;19.216;2023-02-15T04:21:22;-1.10;99.90
25877;DHT22;13692;47.480;19.216;2023-02-15T04:24:09;-1.10;99.90
25877;DHT22;13692;47.480;19.216;2023-02-15T04:26:55;-1.20;99.90
25877;DHT22;13692;47.480;19.216;2023-02-15T04:29:26;-1.20;99.90
25877;DHT22;13692;47.480;19.216;2023-02-15T04:31:55;-1.20;99.90
25877;DHT22;13692;47.480;19.216;2023-02-15T04:34:22;-1.30;99.90
25877;DHT22;13692;47.480;19.216;2023-02-15T04:36:49;-1.30;99.90
25877;DHT22;13692;47.480;19.216;2023-02-15T04:39:18;-1.30;99.90
25877;DHT22;13692;47.480;19.216;2023-02-15T04:41:45;-1.40;99.90
25877;DHT22;13692;47.480;19.216;2023-02-15T04:44:12;-1.40;99.90
25877;DHT22;13692;47.480;19.216;2023-02-15T04:46:39;-1.40;99.90
25877;DHT22;13692;47.480;19.216;2023-02-15T04:49:07;-1.40;99.90
25877;DHT22;13692;47.480;19.216;2023-02-15T04:51:34;-1.40;99.90
25877;DHT22;13692;47.480;19.216;2023-02-15T04:54:01;-1.50;99.90
25877;DHT22;13692;47.480;19.216;2023-02-15T04:56:28;-1.50;99.90
25877;DHT22;13692;47.480;19.216;2023-02-15T04:58:56;-1.40;99.90
25877;DHT22;13692;47.480;19.216;2023-02-15T05:01:23;-1.50;99.90
25877;DHT22;13692;47.480;19.216;2023-02-15T05:03:51;-1.40;99.90
25877;DHT22;13692;47.480;19.216;2023-02-15T05:06:17;-1.50;99.90
25877;DHT22;13692;47.480;19.216;2023-02-15T05:08:44;-1.50;99.90
25877;DHT22;13692;47.480;19.216;2023-02-15T05:11:11;-1.50;99.90
25877;DHT22;13692;47.480;19.216;2023-02-15T05:13:38;-1.50;99.90
25877;DHT22;13692;47.480;19.216;2023-02-15T05:16:05;-1.50;99.90
25877;DHT22;13692;47.480;19.216;2023-02-15T05:18:32;-1.50;99.90
25877;DHT22;13692;47.480;19.216;2023-02-15T05:20:59;-1.50;99.90
25877;DHT22;13692;47.480;19.216;2023-02-15T05:23:26;-1.50;99.90
25877;DHT22;13692;47.480;19.216;2023-02-15T05:25:53;-1.60;99.90
25877;DHT22;13692;47.480;19.216;2023-02-15T05:28:38;-1.60;99.90
25877;DHT22;13692;47.480;19.216;2023-02-15T05:31:14;-1.60;99.90
25877;DHT22;13692;47.480;19.216;2023-02-15T05:33:42;-1.60;99.90
25877;DHT22;13692;47.480;19.216;2023-02-15T05:36:10;-1.60;99.90
25877;DHT22;13692;47.480;19.216;2023-02-15T05:38:38;-1.50;99.90
25877;DHT22;13692;47.480;19.216;2023-02-15T05:41:06;-1.40;99.90
25877;DHT22;13692;47.480;19.216;2023-02-15T05:43:33;-1.50;99.90
25877;DHT22;13692;47.480;19.216;2023-02-15T05:46:00;-1.50;99.90
25877;DHT22;13692;47.480;19.216;2023-02-15T05:48:28;-1.50;99.90
25877;DHT22;13692;47.480;19.216;2023-02-15T05:51:10;-1.50;99.90
25877;DHT22;13692;47.480;19.216;2023-02-15T05:53:40;-1.50;99.90
25877;DHT22;13692;47.480;19.216;2023-02-15T05:56:09;-1.50;99.90
25877;DHT22;13692;47.480;19.216;2023-02-15T05:58:41;-1.50;99.90
25877;DHT22;13692;47.480;19.216;2023-02-15T06:01:15;-1.60;99.90
25877;DHT22;13692;47.480;19.216;2023-02-15T06:03:44;-1.60;99.90
25877;DHT22;13692;47.480;19.216;2023-02-15T06:06:12;-1.60;99.90
25877;DHT22;13692;47.480;19.216;2023-02-15T06:08:39;-1.60;99.90
25877;DHT22;13692;47.480;19.216;2023-02-15T06:11:07;-1.50;99.90
25877;DHT22;13692;47.480;19.216;2023-02-15T06:13:34;-1.50;99.90
25877;DHT22;13692;47.480;19.216;2023-02-15T06:16:05;-1.50;99.90
25877;DHT22;13692;47.480;19.216;2023-02-15T06:18:32;-1.50;99.90
25877;DHT22;13692;47.480;19.216;2023-02-15T06:20:59;-1.40;99.90
25877;DHT22;13692;47.480;19.216;2023-02-15T06:23:26;-1.30;99.90
25877;DHT22;13692;47.480;19.216;2023-02-15T06:25:53;-1.30;99.90
25877;DHT22;13692;47.480;19.216;2023-02-15T06:28:20;-1.20;99.90
25877;DHT22;13692;47.480;19.216;2023-02-15T06:30:47;-1.20;99.90
25877;DHT22;13692;47.480;19.216;2023-02-15T06:33:14;-1.10;99.90
25877;DHT22;13692;47.480;19.216;2023-02-15T06:35:41;-1.00;99.90
25877;DHT22;13692;47.480;19.216;2023-02-15T06:38:08;-0.90;99.90
25877;DHT22;13692;47.480;19.216;2023-02-15T06:40:35;-0.80;99.90
25877;DHT22;13692;47.480;19.216;2023-02-15T06:43:02;-0.70;99.90
25877;DHT22;13692;47.480;19.216;2023-02-15T06:45:29;-0.70;99.90
25877;DHT22;13692;47.480;19.216;2023-02-15T06:47:56;-0.60;99.90
25877;DHT22;13692;47.480;19.216;2023-02-15T06:50:23;-0.50;99.90
25877;DHT22;13692;47.480;19.216;2023-02-15T06:52:55;-0.40;99.90
25877;DHT22;13692;47.480;19.216;2023-02-15T06:55:22;-0.20;99.90
25877;DHT22;13692;47.480;19.216;2023-02-15T06:57:49;-0.10;99.90
25877;DHT22;13692;47.480;19.216;2023-02-15T07:00:17;0.10;99.90
25877;DHT22;13692;47.480;19.216;2023-02-15T07:02:45;0.30;99.90
25877;DHT22;13692;47.480;19.216;2023-02-15T07:05:12;0.50;99.90
25877;DHT22;13692;47.480;19.216;2023-02-15T07:07:39;0.70;99.90
25877;DHT22;13692;47.480;19.216;2023-02-15T07:10:06;1.00;99.90
25877;DHT22;13692;47.480;19.216;2023-02-15T07:12:33;1.20;99.90
25877;DHT22;13692;47.480;19.216;2023-02-15T07:15:11;1.50;99.90
25877;DHT22;13692;47.480;19.216;2023-02-15T07:17:38;1.80;99.90
25877;DHT22;13692;47.480;19.216;2023-02-15T07:20:12;2.10;99.90
25877;DHT22;13692;47.480;19.216;2023-02-15T07:22:40;2.50;99.90
25877;DHT22;13692;47.480;19.216;2023-02-15T07:25:08;2.90;99.90
25877;DHT22;13692;47.480;19.216;2023-02-15T07:27:36;3.30;99.90
25877;DHT22;13692;47.480;19.216;2023-02-15T07:30:07;3.60;99.90
25877;DHT22;13692;47.480;19.216;2023-02-15T07:32:34;3.90;99.90
25877;DHT22;13692;47.480;19.216;2023-02-15T07:35:02;4.20;99.90
25877;DHT22;13692;47.480;19.216;2023-02-15T07:37:29;4.40;99.90
25877;DHT22;13692;47.480;19.216;2023-02-15T07:39:56;4.80;99.90
25877;DHT22;13692;47.480;19.216;2023-02-15T07:42:23;5.10;99.90
25877;DHT22;13692;47.480;19.216;2023-02-15T07:44:50;5.40;99.90
25877;DHT22;13692;47.480;19.216;2023-02-15T07:47:16;5.60;99.90
25877;DHT22;13692;47.480;19.216;2023-02-15T07:49:45;5.90;99.90
25877;DHT22;13692;47.480;19.216;2023-02-15T07:52:12;6.20;99.90
25877;DHT22;13692;47.480;19.216;2023-02-15T07:54:39;6.50;99.90
25877;DHT22;13692;47.480;19.216;2023-02-15T07:57:06;6.60;99.90
25877;DHT22;13692;47.480;19.216;2023-02-15T07:59:33;6.90;99.90
25877;DHT22;13692;47.480;19.216;2023-02-15T08:02:00;7.30;99.90
25877;DHT22;13692;47.480;19.216;2023-02-15T08:04:27;7.60;99.90
25877;DHT22;13692;47.480;19.216;2023-02-15T08:06:54;7.80;99.90
25877;DHT22;13692;47.480;19.216;2023-02-15T08:09:22;8.00;99.90
25877;DHT22;13692;47.480;19.216;2023-02-15T08:11:49;8.30;99.90
25877;DHT22;13692;47.480;19.216;2023-02-15T08:14:19;8.50;99.90
25877;DHT22;13692;47.480;19.216;2023-02-15T08:21:50;9.30;99.90
25877;DHT22;13692;47.480;19.216;2023-02-15T08:24:20;9.50;99.90
25877;DHT22;13692;47.480;19.216;2023-02-15T08:26:48;9.90;99.90
25877;DHT22;13692;47.480;19.216;2023-02-15T08:29:17;10.30;99.90
25877;DHT22;13692;47.480;19.216;2023-02-15T08:31:45;10.60;99.90
25877;DHT22;13692;47.480;19.216;2023-02-15T08:34:15;10.60;99.90
25877;DHT22;13692;47.480;19.216;2023-02-15T08:36:43;10.80;99.90
25877;DHT22;13692;47.480;19.216;2023-02-15T08:39:12;10.70;99.90
25877;DHT22;13692;47.480;19.216;2023-02-15T08:41:42;10.80;99.90
25877;DHT22;13692;47.480;19.216;2023-02-15T08:44:10;10.90;99.90
25877;DHT22;13692;47.480;19.216;2023-02-15T08:46:40;10.90;99.90
25877;DHT22;13692;47.480;19.216;2023-02-15T08:49:09;11.00;99.90
25877;DHT22;13692;47.480;19.216;2023-02-15T08:51:37;10.90;99.90
25877;DHT22;13692;47.480;19.216;2023-02-15T08:54:11;11.10;99.90
25877;DHT22;13692;47.480;19.216;2023-02-15T08:56:42;11.00;99.90
25877;DHT22;13692;47.480;19.216;2023-02-15T08:59:27;10.90;99.90
25877;DHT22;13692;47.480;19.216;2023-02-15T09:01:54;11.00;99.90
25877;DHT22;13692;47.480;19.216;2023-02-15T09:04:21;11.30;99.90
25877;DHT22;13692;47.480;19.216;2023-02-15T09:06:49;11.60;99.90
25877;DHT22;13692;47.480;19.216;2023-02-15T09:09:18;11.60;99.90
25877;DHT22;13692;47.480;19.216;2023-02-15T09:11:48;11.30;99.90
25877;DHT22;13692;47.480;19.216;2023-02-15T09:14:20;11.30;99.90
25877;DHT22;13692;47.480;19.216;2023-02-15T09:16:48;11.30;99.90
25877;DHT22;13692;47.480;19.216;2023-02-15T09:19:19;11.50;99.90
25877;DHT22;13692;47.480;19.216;2023-02-15T09:21:46;11.70;99.90
25877;DHT22;13692;47.480;19.216;2023-02-15T09:24:14;11.60;99.90
25877;DHT22;13692;47.480;19.216;2023-02-15T09:26:44;11.20;99.90
25877;DHT22;13692;47.480;19.216;2023-02-15T09:29:12;11.20;99.90
25877;DHT22;13692;47.480;19.216;2023-02-15T09:31:49;11.60;99.90
25877;DHT22;13692;47.480;19.216;2023-02-15T09:34:20;11.60;99.90
25877;DHT22;13692;47.480;19.216;2023-02-15T09:36:48;11.40;99.90
25877;DHT22;13692;47.480;19.216;2023-02-15T09:39:19;11.50;99.90
25877;DHT22;13692;47.480;19.216;2023-02-15T09:47:38;12.70;99.90
25877;DHT22;13692;47.480;19.216;2023-02-15T10:04:52;12.20;99.90
25877;DHT22;13692;47.480;19.216;2023-02-15T10:13:21;12.30;99.90
25877;DHT22;13692;47.480;19.216;2023-02-15T10:19:00;12.00;99.90
25877;DHT22;13692;47.480;19.216;2023-02-15T10:21:40;11.90;99.90
25877;DHT22;13692;47.480;19.216;2023-02-15T10:26:58;12.30;99.90
25877;DHT22;13692;47.480;19.216;2023-02-15T10:29:39;12.30;99.90
25877;DHT22;13692;47.480;19.216;2023-02-15T10:32:28;12.20;99.90
25877;DHT22;13692;47.480;19.216;2023-02-15T10:35:01;12.00;99.90
25877;DHT22;13692;47.480;19.216;2023-02-15T10:40:59;11.80;99.90
25877;DHT22;13692;47.480;19.216;2023-02-15T10:57:56;11.70;99.90
25877;DHT22;13692;47.480;19.216;2023-02-15T11:06:07;12.10;99.90
25877;DHT22;13692;47.480;19.216;2023-02-15T11:09:02;12.10;99.90
25877;DHT22;13692;47.480;19.216;2023-02-15T11:11:36;11.80;99.90
25877;DHT22;13692;47.480;19.216;2023-02-15T11:14:15;11.90;99.90
25877;DHT22;13692;47.480;19.216;2023-02-15T11:16:45;11.90;99.90
25877;DHT22;13692;47.480;19.216;2023-02-15T11:19:26;12.00;99.90
25877;DHT22;13692;47.480;19.216;2023-02-15T11:21:59;11.60;99.90
25877;DHT22;13692;47.480;19.216;2023-02-15T11:24:28;11.60;99.90
25877;DHT22;13692;47.480;19.216;2023-02-15T11:27:02;11.40;99.90
25877;DHT22;13692;47.480;19.216;2023-02-15T11:32:18;11.40;99.90
25877;DHT22;13692;47.480;19.216;2023-02-15T11:41:18;11.30;99.90
25877;DHT22;13692;47.480;19.216;2023-02-15T11:43:53;10.90;99.90
25877;DHT22;13692;47.480;19.216;2023-02-15T11:46:21;10.70;99.90
25877;DHT22;13692;47.480;19.216;2023-02-15T11:48:48;10.70;99.90
25877;DHT22;13692;47.480;19.216;2023-02-15T11:51:18;10.70;99.90
25877;DHT22;13692;47.480;19.216;2023-02-15T11:53:49;10.90;99.90
25877;DHT22;13692;47.480;19.216;2023-02-15T11:56:20;11.00;99.90
25877;DHT22;13692;47.480;19.216;2023-02-15T11:59:27;11.00;99.90
25877;DHT22;13692;47.480;19.216;2023-02-15T12:01:56;11.00;99.90
25877;DHT22;13692;47.480;19.216;2023-02-15T12:04:36;10.90;99.90
25877;DHT22;13692;47.480;19.216;2023-02-15T12:07:27;10.90;99.90
25877;DHT22;13692;47.480;19.216;2023-02-15T12:12:45;10.70;99.90
25877;DHT22;13692;47.480;19.216;2023-02-15T12:15:13;10.60;99.90
25877;DHT22;13692;47.480;19.216;2023-02-15T12:17:49;10.50;99.90
25877;DHT22;13692;47.480;19.216;2023-02-15T12:22:53;10.60;99.90
25877;DHT22;13692;47.480;19.216;2023-02-15T12:25:36;10.70;99.90
25877;DHT22;13692;47.480;19.216;2023-02-15T12:28:05;10.80;99.90
25877;DHT22;13692;47.480;19.216;2023-02-15T12:30:43;10.70;99.90
25877;DHT22;13692;47.480;19.216;2023-02-15T12:33:42;10.40;99.90
25877;DHT22;13692;47.480;19.216;2023-02-15T12:36:25;10.30;99.90
25877;DHT22;13692;47.480;19.216;2023-02-15T12:41:44;10.40;99.90
25877;DHT22;13692;47.480;19.216;2023-02-15T12:44:24;10.50;99.90
25877;DHT22;13692;47.480;19.216;2023-02-15T12:49:31;10.70;99.90
25877;DHT22;13692;47.480;19.216;2023-02-15T12:52:01;10.70;99.90
25877;DHT22;13692;47.480;19.216;2023-02-15T12:59:53;10.70;99.90
25877;DHT22;13692;47.480;19.216;2023-02-15T13:02:29;10.70;99.90
25877;DHT22;13692;47.480;19.216;2023-02-15T13:05:05;10.60;99.90
25877;DHT22;13692;47.480;19.216;2023-02-15T13:07:35;10.40;99.90
25877;DHT22;13692;47.480;19.216;2023-02-15T13:10:04;10.40;99.90
25877;DHT22;13692;47.480;19.216;2023-02-15T13:12:31;10.50;99.90
25877;DHT22;13692;47.480;19.216;2023-02-15T13:14:59;10.50;99.90
25877;DHT22;13692;47.480;19.216;2023-02-15T13:17:33;10.60;99.90
25877;DHT22;13692;47.480;19.216;2023-02-15T13:20:04;10.60;99.90
25877;DHT22;13692;47.480;19.216;2023-02-15T13:22:41;10.60;99.90
25877;DHT22;13692;47.480;19.216;2023-02-15T13:25:20;10.40;99.90
25877;DHT22;13692;47.480;19.216;2023-02-15T13:27:58;10.40;99.90
25877;DHT22;13692;47.480;19.216;2023-02-15T13:30:36;10.40;99.90
25877;DHT22;13692;47.480;19.216;2023-02-15T13:33:34;10.40;99.90
25877;DHT22;13692;47.480;19.216;2023-02-15T13:36:19;10.50;99.90
25877;DHT22;13692;47.480;19.216;2023-02-15T13:39:28;10.50;99.90
25877;DHT22;13692;47.480;19.216;2023-02-15T13:42:32;10.50;99.90
25877;DHT22;13692;47.480;19.216;2023-02-15T13:51:01;10.50;99.90
25877;DHT22;13692;47.480;19.216;2023-02-15T13:53:42;10.50;99.90
25877;DHT22;13692;47.480;19.216;2023-02-15T14:01:57;10.30;99.90
25877;DHT22;13692;47.480;19.216;2023-02-15T14:05:09;10.20;99.90
25877;DHT22;13692;47.480;19.216;2023-02-15T14:07:49;10.20;99.90
25877;DHT22;13692;47.480;19.216;2023-02-15T14:10:37;10.20;99.90
25877;DHT22;13692;47.480;19.216;2023-02-15T14:15:47;10.20;99.90
25877;DHT22;13692;47.480;19.216;2023-02-15T14:21:15;10.10;99.90
25877;DHT22;13692;47.480;19.216;2023-02-15T14:31:52;10.10;99.90
25877;DHT22;13692;47.480;19.216;2023-02-15T14:34:24;10.00;99.90
25877;DHT22;13692;47.480;19.216;2023-02-15T14:36:55;10.00;99.90
25877;DHT22;13692;47.480;19.216;2023-02-15T14:42:26;10.00;99.90
25877;DHT22;13692;47.480;19.216;2023-02-15T14:45:05;10.00;99.90
25877;DHT22;13692;47.480;19.216;2023-02-15T14:47:48;9.90;99.90
25877;DHT22;13692;47.480;19.216;2023-02-15T14:58:37;9.70;99.90
25877;DHT22;13692;47.480;19.216;2023-02-15T15:01:07;9.70;99.90
25877;DHT22;13692;47.480;19.216;2023-02-15T15:03:36;9.70;99.90
25877;DHT22;13692;47.480;19.216;2023-02-15T15:06:04;9.70;99.90
25877;DHT22;13692;47.480;19.216;2023-02-15T15:08:36;9.70;99.90
25877;DHT22;13692;47.480;19.216;2023-02-15T15:11:42;9.60;99.90
25877;DHT22;13692;47.480;19.216;2023-02-15T15:14:36;9.50;99.90
25877;DHT22;13692;47.480;19.216;2023-02-15T15:17:01;9.50;99.90
25877;DHT22;13692;47.480;19.216;2023-02-15T15:22:27;9.30;99.90
25877;DHT22;13692;47.480;19.216;2023-02-15T15:50:24;8.70;99.90
25877;DHT22;13692;47.480;19.216;2023-02-15T15:52:55;8.60;99.90
25877;DHT22;13692;47.480;19.216;2023-02-15T15:55:26;8.50;99.90
25877;DHT22;13692;47.480;19.216;2023-02-15T15:58:03;8.50;99.90
25877;DHT22;13692;47.480;19.216;2023-02-15T16:00:50;8.40;99.90
25877;DHT22;13692;47.480;19.216;2023-02-15T16:03:22;8.30;99.90
25877;DHT22;13692;47.480;19.216;2023-02-15T16:05:49;8.20;99.90
25877;DHT22;13692;47.480;19.216;2023-02-15T16:08:31;8.20;99.90
25877;DHT22;13692;47.480;19.216;2023-02-15T16:11:07;8.10;99.90
25877;DHT22;13692;47.480;19.216;2023-02-15T16:13:35;8.00;99.90
25877;DHT22;13692;47.480;19.216;2023-02-15T16:16:02;7.90;99.90
25877;DHT22;13692;47.480;19.216;2023-02-15T16:18:31;7.80;99.90
25877;DHT22;13692;47.480;19.216;2023-02-15T16:21:03;7.80;99.90
25877;DHT22;13692;47.480;19.216;2023-02-15T16:26:31;7.60;99.90
25877;DHT22;13692;47.480;19.216;2023-02-15T16:29:12;7.60;99.90
25877;DHT22;13692;47.480;19.216;2023-02-15T16:31:40;7.50;99.90
25877;DHT22;13692;47.480;19.216;2023-02-15T16:34:17;7.30;99.90
25877;DHT22;13692;47.480;19.216;2023-02-15T16:36:45;7.30;99.90
25877;DHT22;13692;47.480;19.216;2023-02-15T16:39:20;7.20;99.90
25877;DHT22;13692;47.480;19.216;2023-02-15T16:41:48;7.10;99.90
25877;DHT22;13692;47.480;19.216;2023-02-15T16:44:19;7.00;99.90
25877;DHT22;13692;47.480;19.216;2023-02-15T16:46:49;6.80;99.90
25877;DHT22;13692;47.480;19.216;2023-02-15T16:49:24;6.70;99.90
25877;DHT22;13692;47.480;19.216;2023-02-15T16:52:02;6.60;99.90
25877;DHT22;13692;47.480;19.216;2023-02-15T16:54:35;6.60;99.90
25877;DHT22;13692;47.480;19.216;2023-02-15T16:57:03;6.50;99.90
25877;DHT22;13692;47.480;19.216;2023-02-15T16:59:35;6.30;99.90
25877;DHT22;13692;47.480;19.216;2023-02-15T17:02:17;6.10;99.90
25877;DHT22;13692;47.480;19.216;2023-02-15T17:08:04;5.70;99.90
25877;DHT22;13692;47.480;19.216;2023-02-15T17:10:39;5.70;99.90
25877;DHT22;13692;47.480;19.216;2023-02-15T17:13:14;5.50;99.90
25877;DHT22;13692;47.480;19.216;2023-02-15T17:18:43;5.30;99.90
25877;DHT22;13692;47.480;19.216;2023-02-15T17:21:25;5.20;99.90
25877;DHT22;13692;47.480;19.216;2023-02-15T17:23:58;5.10;99.90
25877;DHT22;13692;47.480;19.216;2023-02-15T17:26:36;5.00;99.90
25877;DHT22;13692;47.480;19.216;2023-02-15T17:32:03;4.80;99.90
25877;DHT22;13692;47.480;19.216;2023-02-15T17:37:14;4.60;99.90
25877;DHT22;13692;47.480;19.216;2023-02-15T17:39:50;4.50;99.90
25877;DHT22;13692;47.480;19.216;2023-02-15T17:42:18;4.40;99.90
25877;DHT22;13692;47.480;19.216;2023-02-15T17:44:46;4.30;99.90
25877;DHT22;13692;47.480;19.216;2023-02-15T17:47:22;4.30;99.90
25877;DHT22;13692;47.480;19.216;2023-02-15T17:49:55;4.30;99.90
25877;DHT22;13692;47.480;19.216;2023-02-15T17:52:24;4.30;99.90
25877;DHT22;13692;47.480;19.216;2023-02-15T17:54:53;4.20;99.90
25877;DHT22;13692;47.480;19.216;2023-02-15T17:57:42;4.10;99.90
25877;DHT22;13692;47.480;19.216;2023-02-15T18:00:14;4.00;99.90
25877;DHT22;13692;47.480;19.216;2023-02-15T18:03:00;3.90;99.90
25877;DHT22;13692;47.480;19.216;2023-02-15T18:05:46;3.70;99.90
25877;DHT22;13692;47.480;19.216;2023-02-15T18:08:33;3.70;99.90
25877;DHT22;13692;47.480;19.216;2023-02-15T18:11:19;3.60;99.90
25877;DHT22;13692;47.480;19.216;2023-02-15T18:14:09;3.50;99.90
25877;DHT22;13692;47.480;19.216;2023-02-15T18:16:59;3.40;99.90
25877;DHT22;13692;47.480;19.216;2023-02-15T18:19:29;3.40;99.90
25877;DHT22;13692;47.480;19.216;2023-02-15T18:22:12;3.30;99.90
25877;DHT22;13692;47.480;19.216;2023-02-15T18:24:40;3.20;99.90
25877;DHT22;13692;47.480;19.216;2023-02-15T18:27:09;3.20;99.90
25877;DHT22;13692;47.480;19.216;2023-02-15T18:29:38;3.10;99.90
25877;DHT22;13692;47.480;19.216;2023-02-15T18:32:08;3.10;99.90
25877;DHT22;13692;47.480;19.216;2023-02-15T18:34:39;3.00;99.90
25877;DHT22;13692;47.480;19.216;2023-02-15T18:37:15;3.00;99.90
25877;DHT22;13692;47.480;19.216;2023-02-15T18:39:48;2.90;99.90
25877;DHT22;13692;47.480;19.216;2023-02-15T18:42:34;2.90;99.90
25877;DHT22;13692;47.480;19.216;2023-02-15T18:45:23;2.80;99.90
25877;DHT22;13692;47.480;19.216;2023-02-15T18:47:53;2.70;99.90
25877;DHT22;13692;47.480;19.216;2023-02-15T18:50:27;2.70;99.90
25877;DHT22;13692;47.480;19.216;2023-02-15T18:52:59;2.60;99.90
25877;DHT22;13692;47.480;19.216;2023-02-15T18:55:29;2.60;99.90
25877;DHT22;13692;47.480;19.216;2023-02-15T18:58:01;2.60;99.90
25877;DHT22;13692;47.480;19.216;2023-02-15T19:00:33;2.50;99.90
25877;DHT22;13692;47.480;19.216;2023-02-15T19:03:02;2.50;99.90
25877;DHT22;13692;47.480;19.216;2023-02-15T19:05:32;2.50;99.90
25877;DHT22;13692;47.480;19.216;2023-02-15T19:08:00;2.40;99.90
25877;DHT22;13692;47.480;19.216;2023-02-15T19:10:31;2.30;99.90
25877;DHT22;13692;47.480;19.216;2023-02-15T19:13:00;2.30;99.90
25877;DHT22;13692;47.480;19.216;2023-02-15T19:15:30;2.30;99.90
25877;DHT22;13692;47.480;19.216;2023-02-15T19:17:59;2.20;99.90
25877;DHT22;13692;47.480;19.216;2023-02-15T19:20:38;2.20;99.90
25877;DHT22;13692;47.480;19.216;2023-02-15T19:23:14;2.20;99.90
25877;DHT22;13692;47.480;19.216;2023-02-15T19:25:46;2.10;99.90